Portada
METAR-TAF:

METAR-TAF

Aeropuertos :

Al-Ula, Arabia Saudita

latitud: 26-29-00N, longitud: 038-07-01E, altitud: 624 m

Observación

El informe se hizo hace 58 minutos, a las 10:00 UTC
Viento 6 kt del norte-noroeste
Temperatura 18°C
Humedad 30%
Presión 1020 hPa
Visibilidad 10 km o más
sin nubes por debajo de 1500 m y sin presencia de cumulonimbus.

METAR: OEAO 201000Z 34006KT CAVOK 18/00 Q1020

Hora: 13:58 (10:58 UTC)

Pronóstico

El informe se hizo hace 11 horas y 58 minutos, a las 23:00 UTC
Pronóstico válido del 20 a las 00 UTC al 21 a las 06 UTC
Viento 6 kt del noreste
Visibilidad: 7000 m
Escasas nubes a una altura de 4000 ft
Evolucionando progresivamente
del 20 a las 06 UTC al 20 a las 08 UTC
Viento 14 kt del norte-noroeste
Evolucionando progresivamente
del 20 a las 16 UTC al 20 a las 18 UTC
Viento 8 kt del noreste

TAF: OEAO 192300Z 2000/2106 04006KT 7000 FEW040 BECMG 2006/2008 33014KT BECMG 2016/2018 05008KT

Observaciones y pronósticos meteorológicos de más de 4000 aeropuertos (mensajes METAR y TAF).

Los puntos amarillos y rojos representan las estaciones disponibles.

Ponga el ratón en el punto deseado para ver el nombre de la estación.

Haga clic para ver las observaciones y los pronósticos meteorológicos.

Para cambiar el mapa : haga clic en los botones verdes con una cruz de color negro para hacer un zoom, en el botón verde con un guión para alejar o en las flechas verdes para mapas adyacentes.


METAR-TAF: